Accueil
METAR-TAF:

METAR-TAF

Aéroports :

Southern Illinois Airport

Carbondale / Murphysboro, Illinois, États-Unis

latitude: 37-46-59N, longitude: 089-14-42W, altitude: 125 m

Observation

Le bulletin a été fait il y a 46 minutes, à 15:52 UTC
Vent 8 kt de nord/nord-ouest
Température 5°C
Humidité 45%
Pression 1025 hPa
Visibilité: 16.1 km
Nuages fragmentés à une hauteur de 5500 ft

METAR: KMDH 141552Z 33008KT 10SM BKN055 05/M06 A3028 RMK AO2 SLP257 T00501056

Heure: 10:38 (16:38 UTC)


TAF: absent

Observations et prévisions météorologiques de plus de 4000 aéroports (messages METAR et TAF).

Les stations disponibles sont représentées par des disques jaunes et rouges sur la carte.

Passer la souris dessus pour voir le nom de la station.

Cliquer dessus pour voir les observations et prévisions météorologiques.

Pour changer de carte: cliquez sur les boutons verts avec une croix noire pour zoomer, sur le bouton vert avec un tiret pour effectuer un zoom arrière, ou sur les flèches vertes pour les cartes adjacentes.


METAR-TAF: